Terminal Aerodrome Forecast
Issued by NWS

Home | Current Version | Previous Version | Text Only | Print | Product List | Glossary On
Versions: 1 2 3 4 5 6 7 8 9 10 11 12 13 14 15 16 17 18 19 20 21 22 23 24 25 26 27 28 29 30 31 32 33 34
056
FTUS41 KOKX 300832 AAA
TAFSWF
TAF AMD
KSWF 300832Z 3009/3112 VRB04KT P6SM SCT040
     FM301400 02005KT P6SM SCT200
     FM301800 VRB04KT P6SM FEW060 BKN150
     FM310500 11006KT P6SM BKN060 OVC100
     FM310900 11008KT 4SM -RAPL BKN010
      AMD NOT SKED=

USA.gov is the U.S. government's official web portal to all federal, state and local government web resources and services.